sensor_id;sensor_type;location;lat;lon;timestamp;pressure;altitude;pressure_sealevel;temperature;humidity
47785;BME280;35233;55.686;37.848;2022-11-04T00:01:54;99867.16;;;7.19;53.58
47785;BME280;35233;55.686;37.848;2022-11-04T00:04:22;99868.06;;;7.16;53.47
47785;BME280;35233;55.686;37.848;2022-11-04T00:06:49;99874.13;;;7.18;53.97
47785;BME280;35233;55.686;37.848;2022-11-04T00:09:18;99874.19;;;7.15;53.87
47785;BME280;35233;55.686;37.848;2022-11-04T00:11:45;99861.97;;;7.13;53.67
47785;BME280;35233;55.686;37.848;2022-11-04T00:14:30;99878.53;;;7.19;53.91
47785;BME280;35233;55.686;37.848;2022-11-04T00:16:57;99864.56;;;7.14;53.75
47785;BME280;35233;55.686;37.848;2022-11-04T00:19:40;99873.28;;;7.19;53.81
47785;BME280;35233;55.686;37.848;2022-11-04T00:22:24;99864.53;;;7.19;54.34
47785;BME280;35233;55.686;37.848;2022-11-04T00:25:09;99871.56;;;7.15;53.61
47785;BME280;35233;55.686;37.848;2022-11-04T00:28:04;99875.09;;;7.11;53.94
47785;BME280;35233;55.686;37.848;2022-11-04T00:30:52;99868.06;;;7.16;54.21
47785;BME280;35233;55.686;37.848;2022-11-04T00:33:17;99869.81;;;7.14;53.66
47785;BME280;35233;55.686;37.848;2022-11-04T00:35:55;99875.06;;;7.16;54.14
47785;BME280;35233;55.686;37.848;2022-11-04T00:38:22;99870.66;;;7.18;54.01
47785;BME280;35233;55.686;37.848;2022-11-04T00:40:48;99862.81;;;7.16;53.62
47785;BME280;35233;55.686;37.848;2022-11-04T00:43:14;99861.03;;;7.15;53.60
47785;BME280;35233;55.686;37.848;2022-11-04T00:45:40;99862.75;;;7.19;54.29
47785;BME280;35233;55.686;37.848;2022-11-04T00:48:06;99871.50;;;7.20;53.58
47785;BME280;35233;55.686;37.848;2022-11-04T00:50:32;99862.81;;;7.16;54.04
47785;BME280;35233;55.686;37.848;2022-11-04T00:52:59;99872.41;;;7.19;53.68
47785;BME280;35233;55.686;37.848;2022-11-04T00:55:24;99855.78;;;7.17;54.24
47785;BME280;35233;55.686;37.848;2022-11-04T00:57:50;99859.31;;;7.16;54.04
47785;BME280;35233;55.686;37.848;2022-11-04T01:00:16;99855.00;;;7.10;54.26
47785;BME280;35233;55.686;37.848;2022-11-04T01:02:41;99866.25;;;7.18;54.11
47785;BME280;35233;55.686;37.848;2022-11-04T01:05:08;99859.28;;;7.17;53.82
47785;BME280;35233;55.686;37.848;2022-11-04T01:07:33;99858.38;;;7.18;54.25
47785;BME280;35233;55.686;37.848;2022-11-04T01:09:59;99862.81;;;7.16;54.05
47785;BME280;35233;55.686;37.848;2022-11-04T01:12:24;99860.13;;;7.19;53.79
47785;BME280;35233;55.686;37.848;2022-11-04T01:14:50;99856.69;;;7.16;53.65
47785;BME280;35233;55.686;37.848;2022-11-04T01:17:15;99854.09;;;7.11;54.20
47785;BME280;35233;55.686;37.848;2022-11-04T01:19:41;99847.06;;;7.12;54.08
47785;BME280;35233;55.686;37.848;2022-11-04T01:22:07;99854.03;;;7.19;53.92
47785;BME280;35233;55.686;37.848;2022-11-04T01:24:32;99847.03;;;7.16;54.25
47785;BME280;35233;55.686;37.848;2022-11-04T01:26:58;99852.28;;;7.16;53.95
47785;BME280;35233;55.686;37.848;2022-11-04T01:29:23;99846.13;;;7.17;54.04
47785;BME280;35233;55.686;37.848;2022-11-04T01:31:49;99841.81;;;7.13;54.18
47785;BME280;35233;55.686;37.848;2022-11-04T01:34:15;99853.16;;;7.15;54.30
47785;BME280;35233;55.686;37.848;2022-11-04T01:36:40;99839.31;;;7.04;53.73
47785;BME280;35233;55.686;37.848;2022-11-04T01:39:06;99852.28;;;7.16;53.88
47785;BME280;35233;55.686;37.848;2022-11-04T01:41:32;99860.19;;;7.16;54.16
47785;BME280;35233;55.686;37.848;2022-11-04T01:46:46;99855.81;;;7.12;54.14
47785;BME280;35233;55.686;37.848;2022-11-04T01:49:30;99861.97;;;7.11;54.08
47785;BME280;35233;55.686;37.848;2022-11-04T01:52:04;99859.31;;;7.14;54.10
47785;BME280;35233;55.686;37.848;2022-11-04T01:54:31;99852.34;;;7.12;53.86
47785;BME280;35233;55.686;37.848;2022-11-04T01:56:59;99854.06;;;7.14;54.19
47785;BME280;35233;55.686;37.848;2022-11-04T01:59:29;99850.56;;;7.12;54.04
47785;BME280;35233;55.686;37.848;2022-11-04T02:01:57;99858.41;;;7.17;53.96
47785;BME280;35233;55.686;37.848;2022-11-04T02:04:23;99854.09;;;7.11;54.44
47785;BME280;35233;55.686;37.848;2022-11-04T02:07:10;99854.97;;;7.12;54.01
47785;BME280;35233;55.686;37.848;2022-11-04T02:09:37;99856.69;;;7.14;53.73
47785;BME280;35233;55.686;37.848;2022-11-04T02:12:04;99854.06;;;7.14;53.84
47785;BME280;35233;55.686;37.848;2022-11-04T02:14:49;99844.44;;;7.12;54.18
47785;BME280;35233;55.686;37.848;2022-11-04T02:20:17;99862.84;;;7.13;53.95
47785;BME280;35233;55.686;37.848;2022-11-04T02:22:57;99854.97;;;7.12;54.30
47785;BME280;35233;55.686;37.848;2022-11-04T02:33:41;99844.44;;;7.12;54.20
47785;BME280;35233;55.686;37.848;2022-11-04T02:39:48;99852.31;;;7.13;54.02
47785;BME280;35233;55.686;37.848;2022-11-04T02:47:30;99840.97;;;7.13;54.09
47785;BME280;35233;55.686;37.848;2022-11-04T02:50:09;99841.78;;;7.16;54.42
47785;BME280;35233;55.686;37.848;2022-11-04T02:52:44;99848.78;;;7.17;54.15
47785;BME280;35233;55.686;37.848;2022-11-04T02:55:35;99849.63;;;7.19;54.00
47785;BME280;35233;55.686;37.848;2022-11-04T02:58:05;99846.19;;;7.16;53.95
47785;BME280;35233;55.686;37.848;2022-11-04T03:00:33;99841.84;;;7.10;53.98
47785;BME280;35233;55.686;37.848;2022-11-04T03:03:04;99847.06;;;7.13;53.75
47785;BME280;35233;55.686;37.848;2022-11-04T03:05:34;99852.28;;;7.16;53.76
47785;BME280;35233;55.686;37.848;2022-11-04T03:08:05;99840.06;;;7.12;54.12
47785;BME280;35233;55.686;37.848;2022-11-04T03:10:37;99851.41;;;7.17;53.95
47785;BME280;35233;55.686;37.848;2022-11-04T03:13:12;99846.13;;;7.17;54.19
47785;BME280;35233;55.686;37.848;2022-11-04T03:15:39;99851.38;;;7.19;54.04
47785;BME280;35233;55.686;37.848;2022-11-04T03:18:40;99861.03;;;7.17;54.05
47785;BME280;35233;55.686;37.848;2022-11-04T03:21:10;99849.66;;;7.16;53.62
47785;BME280;35233;55.686;37.848;2022-11-04T03:23:38;99852.28;;;7.16;53.81
47785;BME280;35233;55.686;37.848;2022-11-04T03:31:44;99845.25;;;7.18;53.91
47785;BME280;35233;55.686;37.848;2022-11-04T03:34:11;99842.72;;;7.11;53.53
47785;BME280;35233;55.686;37.848;2022-11-04T03:36:37;99838.34;;;7.11;53.67
47785;BME280;35233;55.686;37.848;2022-11-04T03:39:02;99853.13;;;7.18;53.68
47785;BME280;35233;55.686;37.848;2022-11-04T03:41:34;99843.56;;;7.14;53.62
47785;BME280;35233;55.686;37.848;2022-11-04T03:44:01;99854.03;;;7.17;54.09
47785;BME280;35233;55.686;37.848;2022-11-04T03:46:27;99854.03;;;7.17;53.94
47785;BME280;35233;55.686;37.848;2022-11-04T03:48:53;99844.44;;;7.13;53.65
47785;BME280;35233;55.686;37.848;2022-11-04T03:51:19;99853.16;;;7.17;53.82
47785;BME280;35233;55.686;37.848;2022-11-04T03:53:45;99847.94;;;7.14;54.07
47785;BME280;35233;55.686;37.848;2022-11-04T03:56:26;99861.00;;;7.21;53.77
47785;BME280;35233;55.686;37.848;2022-11-04T04:01:57;99847.06;;;7.13;53.39
47785;BME280;35233;55.686;37.848;2022-11-04T04:04:28;99847.88;;;7.18;53.47
47785;BME280;35233;55.686;37.848;2022-11-04T04:07:04;99848.81;;;7.16;53.59
47785;BME280;35233;55.686;37.848;2022-11-04T04:09:42;99852.28;;;7.16;53.59
47785;BME280;35233;55.686;37.848;2022-11-04T04:12:37;99852.28;;;7.16;53.85
47785;BME280;35233;55.686;37.848;2022-11-04T04:17:36;99849.63;;;7.18;53.51
47785;BME280;35233;55.686;37.848;2022-11-04T04:22:36;99850.56;;;7.14;53.37
47785;BME280;35233;55.686;37.848;2022-11-04T04:25:06;99855.75;;;7.21;53.78
47785;BME280;35233;55.686;37.848;2022-11-04T04:27:55;99856.66;;;7.19;53.75
47785;BME280;35233;55.686;37.848;2022-11-04T04:30:22;99852.28;;;7.16;53.44
47785;BME280;35233;55.686;37.848;2022-11-04T04:33:06;99863.63;;;7.20;53.38
47785;BME280;35233;55.686;37.848;2022-11-04T04:35:37;99858.41;;;7.15;53.55
47785;BME280;35233;55.686;37.848;2022-11-04T04:38:09;99866.28;;;7.15;53.84
47785;BME280;35233;55.686;37.848;2022-11-04T04:41:05;99845.31;;;7.14;53.42
47785;BME280;35233;55.686;37.848;2022-11-04T04:43:51;99855.75;;;7.18;53.27
47785;BME280;35233;55.686;37.848;2022-11-04T04:46:35;99869.75;;;7.20;53.32
47785;BME280;35233;55.686;37.848;2022-11-04T04:49:08;99863.66;;;7.17;53.38
47785;BME280;35233;55.686;37.848;2022-11-04T04:51:38;99858.44;;;7.12;53.16
47785;BME280;35233;55.686;37.848;2022-11-04T04:54:05;99875.03;;;7.17;53.61
47785;BME280;35233;55.686;37.848;2022-11-04T04:56:30;99870.66;;;7.19;53.49
47785;BME280;35233;55.686;37.848;2022-11-04T04:58:56;99870.66;;;7.18;53.23
47785;BME280;35233;55.686;37.848;2022-11-04T05:01:22;99881.09;;;7.24;53.62
47785;BME280;35233;55.686;37.848;2022-11-04T05:03:47;99886.41;;;7.19;53.49
47785;BME280;35233;55.686;37.848;2022-11-04T05:06:13;99874.19;;;7.17;53.60
47785;BME280;35233;55.686;37.848;2022-11-04T05:08:38;99879.41;;;7.18;53.54
47785;BME280;35233;55.686;37.848;2022-11-04T05:11:04;99874.19;;;7.17;53.43
47785;BME280;35233;55.686;37.848;2022-11-04T05:13:29;99875.91;;;7.19;53.12
47785;BME280;35233;55.686;37.848;2022-11-04T05:16:06;99880.25;;;7.20;53.37
47785;BME280;35233;55.686;37.848;2022-11-04T05:18:32;99880.25;;;7.22;53.17
47785;BME280;35233;55.686;37.848;2022-11-04T05:21:02;99885.47;;;7.23;53.39
47785;BME280;35233;55.686;37.848;2022-11-04T05:23:28;99882.84;;;7.23;52.91
47785;BME280;35233;55.686;37.848;2022-11-04T05:25:57;99883.72;;;7.24;53.11
47785;BME280;35233;55.686;37.848;2022-11-04T05:28:22;99876.75;;;7.21;52.88
47785;BME280;35233;55.686;37.848;2022-11-04T05:30:48;99879.41;;;7.20;52.91
47785;BME280;35233;55.686;37.848;2022-11-04T05:33:13;99886.34;;;7.24;52.97
47785;BME280;35233;55.686;37.848;2022-11-04T05:35:39;99888.97;;;7.24;53.19
47785;BME280;35233;55.686;37.848;2022-11-04T05:38:04;99894.22;;;7.25;53.34
47785;BME280;35233;55.686;37.848;2022-11-04T05:40:30;99884.56;;;7.26;52.97
47785;BME280;35233;55.686;37.848;2022-11-04T05:42:59;99887.19;;;7.28;53.09
47785;BME280;35233;55.686;37.848;2022-11-04T05:45:26;99887.25;;;7.24;53.09
47785;BME280;35233;55.686;37.848;2022-11-04T05:47:59;99900.31;;;7.29;52.80
47785;BME280;35233;55.686;37.848;2022-11-04T05:50:26;99888.97;;;7.24;53.27
47785;BME280;35233;55.686;37.848;2022-11-04T05:52:52;99888.97;;;7.24;53.05
47785;BME280;35233;55.686;37.848;2022-11-04T05:55:18;99899.47;;;7.25;53.07
47785;BME280;35233;55.686;37.848;2022-11-04T05:57:43;99898.59;;;7.26;53.36
47785;BME280;35233;55.686;37.848;2022-11-04T06:00:11;99897.69;;;7.29;52.92
47785;BME280;35233;55.686;37.848;2022-11-04T06:02:37;99897.69;;;7.31;53.03
47785;BME280;35233;55.686;37.848;2022-11-04T06:05:03;99896.78;;;7.33;52.67
47785;BME280;35233;55.686;37.848;2022-11-04T06:07:28;99893.22;;;7.36;52.80
47785;BME280;35233;55.686;37.848;2022-11-04T06:09:54;99899.41;;;7.33;52.97
47785;BME280;35233;55.686;37.848;2022-11-04T06:12:19;99886.28;;;7.32;52.78
47785;BME280;35233;55.686;37.848;2022-11-04T06:14:45;99881.00;;;7.32;53.08
47785;BME280;35233;55.686;37.848;2022-11-04T06:17:18;99897.66;;;7.32;53.30
47785;BME280;35233;55.686;37.848;2022-11-04T06:19:44;99906.34;;;7.37;52.63
47785;BME280;35233;55.686;37.848;2022-11-04T06:22:12;99901.09;;;7.39;52.24
47785;BME280;35233;55.686;37.848;2022-11-04T06:24:38;99911.56;;;7.42;52.33
47785;BME280;35233;55.686;37.848;2022-11-04T06:27:04;99902.00;;;7.35;53.09
47785;BME280;35233;55.686;37.848;2022-11-04T06:29:29;99904.59;;;7.38;52.64
47785;BME280;35233;55.686;37.848;2022-11-04T06:31:55;99900.25;;;7.35;52.53
47785;BME280;35233;55.686;37.848;2022-11-04T06:34:21;99901.06;;;7.42;52.40
47785;BME280;35233;55.686;37.848;2022-11-04T06:36:50;99909.78;;;7.44;52.63
47785;BME280;35233;55.686;37.848;2022-11-04T06:39:15;99918.53;;;7.46;52.08
47785;BME280;35233;55.686;37.848;2022-11-04T06:41:41;99917.72;;;7.39;52.30
47785;BME280;35233;55.686;37.848;2022-11-04T06:44:06;99914.16;;;7.45;52.48
47785;BME280;35233;55.686;37.848;2022-11-04T06:46:39;99915.84;;;7.47;52.56
47785;BME280;35233;55.686;37.848;2022-11-04T06:49:08;99921.13;;;7.47;52.35
47785;BME280;35233;55.686;37.848;2022-11-04T06:51:35;99923.78;;;7.44;52.08
47785;BME280;35233;55.686;37.848;2022-11-04T06:54:01;99915.94;;;7.41;52.17
47785;BME280;35233;55.686;37.848;2022-11-04T06:56:26;99913.28;;;7.46;52.33
47785;BME280;35233;55.686;37.848;2022-11-04T06:58:53;99920.25;;;7.47;52.14
47785;BME280;35233;55.686;37.848;2022-11-04T07:01:20;99926.38;;;7.51;52.24
47785;BME280;35233;55.686;37.848;2022-11-04T07:03:51;99921.94;;;7.53;52.50
47785;BME280;35233;55.686;37.848;2022-11-04T07:06:17;99922.88;;;7.47;52.03
47785;BME280;35233;55.686;37.848;2022-11-04T07:08:43;99927.19;;;7.53;52.56
47785;BME280;35233;55.686;37.848;2022-11-04T07:11:09;99926.38;;;7.51;52.56
47785;BME280;35233;55.686;37.848;2022-11-04T07:13:35;99933.28;;;7.56;52.44
47785;BME280;35233;55.686;37.848;2022-11-04T07:16:04;99929.78;;;7.57;51.88
47785;BME280;35233;55.686;37.848;2022-11-04T07:18:29;99928.94;;;7.57;52.33
47785;BME280;35233;55.686;37.848;2022-11-04T07:20:56;99933.28;;;7.59;51.99
47785;BME280;35233;55.686;37.848;2022-11-04T07:23:22;99934.16;;;7.60;51.93
47785;BME280;35233;55.686;37.848;2022-11-04T07:25:47;99928.88;;;7.58;52.11
47785;BME280;35233;55.686;37.848;2022-11-04T07:28:13;99935.91;;;7.56;52.35
47785;BME280;35233;55.686;37.848;2022-11-04T07:30:39;99933.25;;;7.61;51.98
47785;BME280;35233;55.686;37.848;2022-11-04T07:33:04;99934.94;;;7.65;51.79
47785;BME280;35233;55.686;37.848;2022-11-04T07:35:30;99937.56;;;7.66;51.96
47785;BME280;35233;55.686;37.848;2022-11-04T07:37:56;99920.09;;;7.62;51.89
47785;BME280;35233;55.686;37.848;2022-11-04T07:40:23;99930.59;;;7.65;51.74
47785;BME280;35233;55.686;37.848;2022-11-04T07:42:48;99914.88;;;7.59;52.06
47785;BME280;35233;55.686;37.848;2022-11-04T07:45:14;99930.50;;;7.71;51.82
47785;BME280;35233;55.686;37.848;2022-11-04T07:47:39;99926.97;;;7.72;51.67
47785;BME280;35233;55.686;37.848;2022-11-04T07:50:05;99927.84;;;7.73;51.57
47785;BME280;35233;55.686;37.848;2022-11-04T07:52:30;99929.56;;;7.76;51.43
47785;BME280;35233;55.686;37.848;2022-11-04T07:54:56;99924.38;;;7.71;51.42
47785;BME280;35233;55.686;37.848;2022-11-04T07:57:21;99929.59;;;7.74;51.42
47785;BME280;35233;55.686;37.848;2022-11-04T07:59:47;99926.03;;;7.78;51.75
47785;BME280;35233;55.686;37.848;2022-11-04T08:02:12;99933.06;;;7.78;51.80
47785;BME280;35233;55.686;37.848;2022-11-04T08:04:38;99926.84;;;7.82;51.40
47785;BME280;35233;55.686;37.848;2022-11-04T08:07:07;99929.47;;;7.82;51.36
47785;BME280;35233;55.686;37.848;2022-11-04T08:09:32;99922.53;;;7.78;51.37
47785;BME280;35233;55.686;37.848;2022-11-04T08:11:58;99931.16;;;7.87;51.38
47785;BME280;35233;55.686;37.848;2022-11-04T08:14:24;99930.34;;;7.85;51.85
47785;BME280;35233;55.686;37.848;2022-11-04T08:16:50;99932.97;;;7.84;51.90
47785;BME280;35233;55.686;37.848;2022-11-04T08:19:16;99932.16;;;7.79;51.51
47785;BME280;35233;55.686;37.848;2022-11-04T08:21:42;99928.63;;;7.81;51.55
47785;BME280;35233;55.686;37.848;2022-11-04T08:24:07;99911.22;;;7.69;51.39
47785;BME280;35233;55.686;37.848;2022-11-04T08:26:33;99932.16;;;7.79;51.75
47785;BME280;35233;55.686;37.848;2022-11-04T08:28:58;99928.69;;;7.77;51.57
47785;BME280;35233;55.686;37.848;2022-11-04T08:31:29;99925.16;;;7.76;51.54
47785;BME280;35233;55.686;37.848;2022-11-04T08:33:55;99918.22;;;7.72;51.42
47785;BME280;35233;55.686;37.848;2022-11-04T08:36:24;99928.69;;;7.74;51.54
47785;BME280;35233;55.686;37.848;2022-11-04T08:38:50;99927.88;;;7.70;51.63
47785;BME280;35233;55.686;37.848;2022-11-04T08:41:18;99930.47;;;7.75;51.87
47785;BME280;35233;55.686;37.848;2022-11-04T08:43:45;99913.81;;;7.74;51.81
47785;BME280;35233;55.686;37.848;2022-11-04T08:46:11;99922.50;;;7.79;51.75
47785;BME280;35233;55.686;37.848;2022-11-04T08:48:39;99914.59;;;7.81;51.56
47785;BME280;35233;55.686;37.848;2022-11-04T08:51:09;99914.53;;;7.87;51.74
47785;BME280;35233;55.686;37.848;2022-11-04T08:53:35;99918.00;;;7.87;51.39
47785;BME280;35233;55.686;37.848;2022-11-04T08:56:18;99909.28;;;7.85;51.46
47785;BME280;35233;55.686;37.848;2022-11-04T08:58:45;99923.09;;;8.00;51.20
47785;BME280;35233;55.686;37.848;2022-11-04T09:01:11;99916.16;;;7.97;51.27
47785;BME280;35233;55.686;37.848;2022-11-04T09:03:38;99921.38;;;8.00;51.15
47785;BME280;35233;55.686;37.848;2022-11-04T09:06:09;99918.69;;;8.02;51.33
47785;BME280;35233;55.686;37.848;2022-11-04T09:08:35;99913.38;;;8.06;51.13
47785;BME280;35233;55.686;37.848;2022-11-04T09:11:05;99915.94;;;8.11;51.17
47785;BME280;35233;55.686;37.848;2022-11-04T09:13:31;99912.44;;;8.10;51.25
47785;BME280;35233;55.686;37.848;2022-11-04T09:15:57;99912.34;;;8.16;51.26
47785;BME280;35233;55.686;37.848;2022-11-04T09:18:22;99914.06;;;8.21;50.99
47785;BME280;35233;55.686;37.848;2022-11-04T09:20:48;99904.50;;;8.13;51.24
47785;BME280;35233;55.686;37.848;2022-11-04T09:23:14;99910.59;;;8.17;50.96
47785;BME280;35233;55.686;37.848;2022-11-04T09:25:40;99922.84;;;8.20;51.00
47785;BME280;35233;55.686;37.848;2022-11-04T09:28:05;99911.44;;;8.19;51.14
47785;BME280;35233;55.686;37.848;2022-11-04T09:30:31;99895.69;;;8.18;51.11
47785;BME280;35233;55.686;37.848;2022-11-04T09:32:57;99920.16;;;8.23;51.14
47785;BME280;35233;55.686;37.848;2022-11-04T09:35:22;99908.81;;;8.21;51.02
47785;BME280;35233;55.686;37.848;2022-11-04T09:37:48;99902.72;;;8.15;51.30
47785;BME280;35233;55.686;37.848;2022-11-04T09:40:16;99905.38;;;8.14;51.28
47785;BME280;35233;55.686;37.848;2022-11-04T09:42:56;99913.22;;;8.17;51.54
47785;BME280;35233;55.686;37.848;2022-11-04T09:45:27;99898.38;;;8.14;51.20
47785;BME280;35233;55.686;37.848;2022-11-04T09:48:02;99905.31;;;8.19;51.43
47785;BME280;35233;55.686;37.848;2022-11-04T09:53:16;99905.31;;;8.17;51.59
47785;BME280;35233;55.686;37.848;2022-11-04T09:56:03;99907.94;;;8.19;51.23
47785;BME280;35233;55.686;37.848;2022-11-04T09:58:36;99908.91;;;8.14;51.30
47785;BME280;35233;55.686;37.848;2022-11-04T10:09:24;99921.19;;;8.11;51.61
47785;BME280;35233;55.686;37.848;2022-11-04T10:17:23;99921.25;;;8.09;51.94
47785;BME280;35233;55.686;37.848;2022-11-04T10:20:18;99921.28;;;8.06;52.11
47785;BME280;35233;55.686;37.848;2022-11-04T10:26:13;99923.88;;;8.08;52.18
47785;BME280;35233;55.686;37.848;2022-11-04T10:28:44;99917.75;;;8.07;51.78
47785;BME280;35233;55.686;37.848;2022-11-04T10:31:16;99915.16;;;8.06;52.09
47785;BME280;35233;55.686;37.848;2022-11-04T10:33:49;99912.53;;;8.04;51.75
47785;BME280;35233;55.686;37.848;2022-11-04T10:36:16;99926.47;;;8.11;51.92
47785;BME280;35233;55.686;37.848;2022-11-04T10:43:40;99906.31;;;8.10;52.03
47785;BME280;35233;55.686;37.848;2022-11-04T10:52:00;99905.41;;;8.12;52.21
47785;BME280;35233;55.686;37.848;2022-11-04T10:54:40;99904.50;;;8.13;52.04
47785;BME280;35233;55.686;37.848;2022-11-04T10:57:06;99907.91;;;8.20;51.72
47785;BME280;35233;55.686;37.848;2022-11-04T11:00:02;99904.41;;;8.20;52.04
47785;BME280;35233;55.686;37.848;2022-11-04T11:07:49;99899.97;;;8.25;51.71
47785;BME280;35233;55.686;37.848;2022-11-04T11:10:20;99899.16;;;8.20;51.97
47785;BME280;35233;55.686;37.848;2022-11-04T11:12:52;99895.59;;;8.24;51.72
47785;BME280;35233;55.686;37.848;2022-11-04T11:15:36;99914.84;;;8.27;51.74
47785;BME280;35233;55.686;37.848;2022-11-04T11:20:31;99900.72;;;8.31;51.54
47785;BME280;35233;55.686;37.848;2022-11-04T11:22:58;99899.09;;;8.24;52.07
47785;BME280;35233;55.686;37.848;2022-11-04T11:25:27;99911.34;;;8.27;52.11
47785;BME280;35233;55.686;37.848;2022-11-04T11:27:59;99909.53;;;8.30;51.83
47785;BME280;35233;55.686;37.848;2022-11-04T11:33:26;99917.38;;;8.32;51.81
47785;BME280;35233;55.686;37.848;2022-11-04T11:36:01;99921.81;;;8.30;51.66
47785;BME280;35233;55.686;37.848;2022-11-04T11:38:30;99917.47;;;8.26;52.01
47785;BME280;35233;55.686;37.848;2022-11-04T11:41:12;99925.41;;;8.24;52.15
47785;BME280;35233;55.686;37.848;2022-11-04T11:43:49;99917.56;;;8.20;52.23
47785;BME280;35233;55.686;37.848;2022-11-04T11:46:21;99925.50;;;8.18;52.48
47785;BME280;35233;55.686;37.848;2022-11-04T11:48:53;99923.78;;;8.15;52.12
47785;BME280;35233;55.686;37.848;2022-11-04T11:51:27;99923.75;;;8.17;52.29
47785;BME280;35233;55.686;37.848;2022-11-04T11:54:12;99935.16;;;8.16;52.47
47785;BME280;35233;55.686;37.848;2022-11-04T11:56:41;99929.97;;;8.11;52.46
47785;BME280;35233;55.686;37.848;2022-11-04T11:59:27;99935.22;;;8.11;52.54
47785;BME280;35233;55.686;37.848;2022-11-04T12:04:49;99944.88;;;8.11;52.81
47785;BME280;35233;55.686;37.848;2022-11-04T12:07:41;99945.75;;;8.13;52.45
47785;BME280;35233;55.686;37.848;2022-11-04T12:10:34;99952.78;;;8.11;52.56
47785;BME280;35233;55.686;37.848;2022-11-04T12:13:19;99945.78;;;8.08;52.80
47785;BME280;35233;55.686;37.848;2022-11-04T12:18:50;99940.59;;;8.04;53.03
47785;BME280;35233;55.686;37.848;2022-11-04T12:21:23;99948.47;;;8.07;53.21
47785;BME280;35233;55.686;37.848;2022-11-04T12:26:35;99950.19;;;8.08;52.74
47785;BME280;35233;55.686;37.848;2022-11-04T12:37:40;99950.16;;;8.11;52.90
47785;BME280;35233;55.686;37.848;2022-11-04T12:40:14;99950.19;;;8.09;52.73
47785;BME280;35233;55.686;37.848;2022-11-04T12:45:48;99952.84;;;8.06;53.05
47785;BME280;35233;55.686;37.848;2022-11-04T12:48:38;99950.22;;;8.05;53.13
47785;BME280;35233;55.686;37.848;2022-11-04T12:53:55;99958.09;;;8.08;53.18
47785;BME280;35233;55.686;37.848;2022-11-04T12:56:34;99952.84;;;8.06;53.26
47785;BME280;35233;55.686;37.848;2022-11-04T13:02:12;99951.13;;;8.04;52.99
47785;BME280;35233;55.686;37.848;2022-11-04T13:04:44;99954.66;;;8.01;53.32
47785;BME280;35233;55.686;37.848;2022-11-04T13:07:30;99942.41;;;7.99;52.97
47785;BME280;35233;55.686;37.848;2022-11-04T13:10:04;99957.31;;;8.00;53.08
47785;BME280;35233;55.686;37.848;2022-11-04T13:12:36;99959.03;;;8.04;52.79
47785;BME280;35233;55.686;37.848;2022-11-04T13:15:16;99967.78;;;8.03;53.36
47785;BME280;35233;55.686;37.848;2022-11-04T13:17:44;99951.25;;;7.93;52.92
47785;BME280;35233;55.686;37.848;2022-11-04T13:22:41;99965.19;;;8.00;52.76
47785;BME280;35233;55.686;37.848;2022-11-04T13:25:37;99971.31;;;8.03;52.99
47785;BME280;35233;55.686;37.848;2022-11-04T13:28:09;99965.22;;;7.98;52.91
47785;BME280;35233;55.686;37.848;2022-11-04T13:38:33;99972.25;;;7.98;52.95
47785;BME280;35233;55.686;37.848;2022-11-04T13:44:15;99974.03;;;7.97;53.27
47785;BME280;35233;55.686;37.848;2022-11-04T13:46:50;99982.78;;;7.96;53.00
47785;BME280;35233;55.686;37.848;2022-11-04T13:49:32;99980.19;;;7.93;53.17
47785;BME280;35233;55.686;37.848;2022-11-04T13:52:10;99986.31;;;7.95;53.14
47785;BME280;35233;55.686;37.848;2022-11-04T13:54:41;99984.56;;;7.97;52.79
47785;BME280;35233;55.686;37.848;2022-11-04T13:57:29;99987.19;;;7.94;53.31
47785;BME280;35233;55.686;37.848;2022-11-04T14:02:46;99996.84;;;7.93;53.12
47785;BME280;35233;55.686;37.848;2022-11-04T14:16:02;99995.97;;;7.93;53.64
47785;BME280;35233;55.686;37.848;2022-11-04T14:18:33;99998.66;;;7.91;53.76
47785;BME280;35233;55.686;37.848;2022-11-04T14:21:10;99993.44;;;7.87;53.64
47785;BME280;35233;55.686;37.848;2022-11-04T14:23:37;99994.28;;;7.89;53.43
47785;BME280;35233;55.686;37.848;2022-11-04T14:26:06;100000.41;;;7.88;53.61
47785;BME280;35233;55.686;37.848;2022-11-04T14:28:34;99996.97;;;7.86;53.83
47785;BME280;35233;55.686;37.848;2022-11-04T14:31:10;100012.66;;;7.90;53.44
47785;BME280;35233;55.686;37.848;2022-11-04T14:41:54;100017.09;;;7.87;53.65
47785;BME280;35233;55.686;37.848;2022-11-04T14:44:30;100008.31;;;7.88;53.69
47785;BME280;35233;55.686;37.848;2022-11-04T14:47:21;100015.34;;;7.89;53.61
47785;BME280;35233;55.686;37.848;2022-11-04T14:50:05;100020.56;;;7.90;53.71
47785;BME280;35233;55.686;37.848;2022-11-04T14:52:43;100023.22;;;7.89;53.58
47785;BME280;35233;55.686;37.848;2022-11-04T14:57:44;100017.13;;;7.82;53.97
47785;BME280;35233;55.686;37.848;2022-11-04T15:00:32;100029.34;;;7.88;53.49
47785;BME280;35233;55.686;37.848;2022-11-04T15:03:12;100027.63;;;7.88;53.95
47785;BME280;35233;55.686;37.848;2022-11-04T15:05:39;100025.00;;;7.87;53.76
47785;BME280;35233;55.686;37.848;2022-11-04T15:11:06;100029.34;;;7.88;53.42
47785;BME280;35233;55.686;37.848;2022-11-04T15:13:38;100035.47;;;7.90;53.85
47785;BME280;35233;55.686;37.848;2022-11-04T15:16:20;100032.84;;;7.90;53.74
47785;BME280;35233;55.686;37.848;2022-11-04T15:18:48;100030.28;;;7.85;53.46
47785;BME280;35233;55.686;37.848;2022-11-04T15:21:14;100036.38;;;7.89;53.58
47785;BME280;35233;55.686;37.848;2022-11-04T15:23:42;100031.13;;;7.89;53.51
47785;BME280;35233;55.686;37.848;2022-11-04T15:26:25;100038.09;;;7.90;53.79
47785;BME280;35233;55.686;37.848;2022-11-04T15:28:52;100034.66;;;7.85;53.79
47785;BME280;35233;55.686;37.848;2022-11-04T15:31:23;100046.91;;;7.87;53.83
47785;BME280;35233;55.686;37.848;2022-11-04T15:33:55;100041.63;;;7.87;53.72
47785;BME280;35233;55.686;37.848;2022-11-04T15:36:30;100052.13;;;7.92;53.64
47785;BME280;35233;55.686;37.848;2022-11-04T15:39:07;100043.41;;;7.88;53.75
47785;BME280;35233;55.686;37.848;2022-11-04T15:41:37;100053.88;;;7.90;54.01
47785;BME280;35233;55.686;37.848;2022-11-04T15:44:31;100057.38;;;7.90;54.17